createdAt,value
2023-02-22T00:01:07.726Z,66.97
2023-02-22T00:03:35.099Z,76.23
2023-02-22T00:06:05.122Z,71.40
2023-02-22T00:08:37.254Z,70.50
2023-02-22T00:11:08.776Z,63.97
2023-02-22T00:13:37.381Z,68.50
2023-02-22T00:16:05.317Z,71.93
2023-02-22T00:18:33.319Z,71.20
2023-02-22T00:21:01.334Z,64.33
2023-02-22T00:23:30.063Z,75.73
2023-02-22T00:25:59.416Z,74.07
2023-02-22T00:28:26.334Z,78.03
2023-02-22T00:30:55.031Z,85.00
2023-02-22T00:33:22.616Z,77.63
2023-02-22T00:35:49.653Z,94.50
2023-02-22T00:38:19.116Z,75.07
2023-02-22T00:40:46.360Z,146.33
2023-02-22T00:43:14.096Z,76.93
2023-02-22T00:45:41.493Z,162.13
2023-02-22T00:48:09.802Z,121.83
2023-02-22T00:50:37.410Z,255.63
2023-02-22T00:53:06.108Z,149.07
2023-02-22T00:55:35.984Z,132.07
2023-02-22T00:58:04.141Z,230.70
2023-02-22T01:00:35.209Z,150.50
2023-02-22T01:03:02.185Z,178.57
2023-02-22T01:05:30.565Z,311.93
2023-02-22T01:07:59.145Z,383.27
2023-02-22T01:10:28.358Z,217.70
2023-02-22T01:12:57.550Z,415.20
2023-02-22T01:15:29.229Z,306.57
2023-02-22T01:17:56.770Z,253.50
2023-02-22T01:20:25.670Z,358.43
2023-02-22T01:22:55.019Z,362.27
2023-02-22T01:25:26.595Z,259.53
2023-02-22T01:27:54.501Z,433.90
2023-02-22T01:30:27.588Z,333.10
2023-02-22T01:32:55.836Z,375.93
2023-02-22T01:35:27.981Z,400.67
2023-02-22T01:37:55.983Z,345.93
2023-02-22T01:40:26.035Z,367.70
2023-02-22T01:42:54.957Z,364.73
2023-02-22T01:45:31.007Z,346.57
2023-02-22T01:48:06.793Z,355.80
2023-02-22T01:50:37.792Z,348.23
2023-02-22T01:53:07.622Z,309.23
2023-02-22T01:55:35.863Z,191.33
2023-02-22T01:58:04.460Z,243.67
2023-02-22T02:00:32.222Z,264.73
2023-02-22T02:03:06.551Z,155.53
2023-02-22T02:05:35.072Z,168.53
2023-02-22T02:08:13.385Z,219.20
2023-02-22T02:10:41.832Z,242.67
2023-02-22T02:13:10.332Z,192.37
2023-02-22T02:15:37.592Z,253.30
2023-02-22T02:18:09.359Z,133.80
2023-02-22T02:20:40.767Z,232.27
2023-02-22T02:23:07.605Z,225.07
2023-02-22T02:25:54.625Z,196.33
2023-02-22T02:28:34.237Z,223.03
2023-02-22T02:31:23.590Z,159.07
2023-02-22T02:34:14.080Z,127.40
2023-02-22T02:36:46.423Z,209.90
2023-02-22T02:40:04.859Z,201.03
2023-02-22T02:42:42.775Z,185.60
2023-02-22T02:45:16.250Z,182.40
2023-02-22T02:47:49.578Z,226.00
2023-02-22T02:50:33.934Z,282.63
2023-02-22T02:53:04.835Z,218.93
2023-02-22T02:55:32.910Z,219.90
2023-02-22T02:58:00.351Z,193.57
2023-02-22T03:00:39.369Z,221.47
2023-02-22T03:03:29.250Z,173.40
2023-02-22T03:06:08.119Z,243.63
2023-02-22T03:08:43.038Z,262.97
2023-02-22T03:11:22.645Z,262.07
2023-02-22T03:14:01.801Z,255.90
2023-02-22T03:16:56.366Z,223.77
2023-02-22T03:19:32.536Z,68.63
2023-02-22T03:22:26.346Z,209.67
2023-02-22T03:24:59.385Z,260.97
2023-02-22T03:27:37.392Z,176.07
2023-02-22T03:30:09.742Z,143.60
2023-02-22T03:32:45.732Z,149.60
2023-02-22T03:35:21.793Z,130.43
2023-02-22T03:37:53.570Z,232.23
2023-02-22T03:40:29.090Z,161.53
2023-02-22T03:43:02.289Z,160.97
2023-02-22T03:45:31.051Z,217.53
2023-02-22T03:48:19.318Z,144.63
2023-02-22T03:50:52.052Z,222.57
2023-02-22T03:53:20.342Z,138.87
2023-02-22T03:55:52.886Z,188.90
2023-02-22T03:58:23.144Z,133.37
2023-02-22T04:00:53.312Z,188.70
2023-02-22T04:03:22.354Z,179.47
2023-02-22T04:05:49.982Z,177.40
2023-02-22T04:08:17.403Z,132.67
2023-02-22T04:10:44.277Z,118.10
2023-02-22T04:13:11.377Z,188.40
2023-02-22T04:15:40.869Z,147.97
2023-02-22T04:18:08.786Z,132.73
2023-02-22T04:20:35.699Z,82.07
2023-02-22T04:23:02.642Z,76.37
2023-02-22T04:25:29.531Z,67.30
2023-02-22T04:27:57.939Z,83.93
2023-02-22T04:30:24.880Z,80.70
2023-02-22T04:32:51.818Z,96.70
2023-02-22T04:35:18.806Z,69.97
2023-02-22T04:37:45.754Z,69.53
2023-02-22T04:40:12.705Z,74.33
2023-02-22T04:42:39.955Z,92.43
2023-02-22T04:45:08.545Z,84.43
2023-02-22T04:47:39.009Z,74.43
2023-02-22T04:50:07.395Z,69.17
2023-02-22T04:52:34.303Z,120.80
2023-02-22T04:55:01.293Z,81.77
2023-02-22T04:57:28.380Z,98.73
2023-02-22T04:59:55.338Z,145.60
2023-02-22T05:02:22.369Z,97.17
2023-02-22T05:04:49.524Z,109.47
2023-02-22T05:07:17.724Z,145.33
2023-02-22T05:09:44.648Z,83.17
2023-02-22T05:12:11.625Z,126.67
2023-02-22T05:14:38.643Z,96.27
2023-02-22T05:17:05.580Z,67.40
2023-02-22T05:19:32.582Z,128.63
2023-02-22T05:22:00.314Z,203.23
2023-02-22T05:24:27.331Z,129.57
2023-02-22T05:26:54.258Z,243.87
2023-02-22T05:29:21.238Z,221.20
2023-02-22T05:31:48.349Z,171.87
2023-02-22T05:34:16.253Z,224.47
2023-02-22T05:36:43.303Z,179.33
2023-02-22T05:39:10.234Z,141.10
2023-02-22T05:41:37.163Z,198.10
2023-02-22T05:44:04.274Z,187.50
2023-02-22T05:46:31.277Z,162.23
2023-02-22T05:48:58.310Z,123.97
2023-02-22T05:51:25.223Z,119.17
2023-02-22T05:53:52.638Z,148.53
2023-02-22T05:56:27.814Z,178.03
2023-02-22T05:58:55.273Z,138.70
2023-02-22T06:01:22.841Z,187.77
2023-02-22T06:03:51.218Z,171.03
2023-02-22T06:06:22.090Z,216.00
2023-02-22T06:08:49.880Z,178.20
2023-02-22T06:11:17.255Z,148.87
2023-02-22T06:13:51.006Z,110.40
2023-02-22T06:16:18.172Z,157.57
2023-02-22T06:18:45.055Z,128.00
2023-02-22T06:21:11.984Z,91.90
2023-02-22T06:23:38.939Z,83.33
2023-02-22T06:26:06.229Z,78.73
2023-02-22T06:28:33.114Z,79.13
2023-02-22T06:31:00.073Z,86.93
2023-02-22T06:33:26.948Z,74.27
2023-02-22T06:35:53.848Z,68.53
2023-02-22T06:38:22.823Z,80.80
2023-02-22T06:40:49.668Z,71.17
2023-02-22T06:43:16.889Z,75.93
2023-02-22T06:45:44.122Z,76.33
2023-02-22T06:48:12.378Z,77.90
2023-02-22T06:50:45.345Z,75.03
2023-02-22T06:53:15.520Z,74.07
2023-02-22T06:55:43.487Z,73.10
2023-02-22T06:58:10.386Z,72.30
2023-02-22T07:00:37.352Z,62.60
2023-02-22T07:03:04.489Z,65.37
2023-02-22T07:05:31.478Z,57.17
2023-02-22T07:08:05.277Z,64.47
2023-02-22T07:10:33.881Z,59.93
2023-02-22T07:13:01.726Z,71.00
2023-02-22T07:15:30.427Z,65.07
2023-02-22T07:17:57.731Z,57.93
2023-02-22T07:20:27.933Z,60.57
2023-02-22T07:22:54.908Z,60.20
2023-02-22T07:25:23.762Z,57.83
2023-02-22T07:27:52.585Z,55.53
2023-02-22T07:30:26.374Z,55.57
2023-02-22T07:32:54.626Z,52.50
2023-02-22T07:35:26.212Z,45.93
2023-02-22T07:37:55.978Z,45.17
2023-02-22T07:40:24.110Z,45.00
2023-02-22T07:42:51.905Z,41.67
2023-02-22T07:45:19.637Z,37.37
2023-02-22T07:47:47.879Z,45.30
2023-02-22T07:50:19.054Z,38.33
2023-02-22T07:52:51.627Z,36.93
2023-02-22T07:55:23.654Z,35.87
2023-02-22T07:57:52.741Z,41.30
2023-02-22T08:00:34.872Z,36.23
2023-02-22T08:03:05.228Z,35.67
2023-02-22T08:05:35.619Z,35.03
2023-02-22T08:08:04.661Z,37.47
2023-02-22T08:10:37.903Z,34.27
2023-02-22T08:13:06.813Z,33.13
2023-02-22T08:15:38.428Z,37.63
2023-02-22T08:18:11.529Z,36.43
2023-02-22T08:20:39.620Z,41.43
2023-02-22T08:23:07.770Z,36.83
2023-02-22T08:25:36.044Z,36.07
2023-02-22T08:28:06.018Z,34.10
2023-02-22T08:30:35.234Z,34.03
2023-02-22T08:33:04.378Z,36.87
2023-02-22T08:35:33.670Z,38.30
2023-02-22T08:38:06.989Z,41.77
2023-02-22T08:40:36.566Z,35.27
2023-02-22T08:43:04.569Z,37.03
2023-02-22T08:45:31.675Z,34.53
2023-02-22T08:48:00.718Z,39.57
2023-02-22T08:50:33.758Z,42.33
2023-02-22T08:53:04.253Z,42.27
2023-02-22T08:55:35.170Z,41.43
2023-02-22T08:58:03.578Z,38.27
2023-02-22T09:00:33.637Z,32.67
2023-02-22T09:03:02.856Z,31.63
2023-02-22T09:05:32.872Z,32.87
2023-02-22T09:08:00.698Z,33.47
2023-02-22T09:10:32.773Z,40.47
2023-02-22T09:13:01.603Z,32.57
2023-02-22T09:15:30.184Z,32.43
2023-02-22T09:17:59.095Z,28.80
2023-02-22T09:20:28.547Z,33.43
2023-02-22T09:22:55.593Z,34.10
2023-02-22T09:25:24.141Z,32.80
2023-02-22T09:27:53.376Z,34.03
2023-02-22T09:30:27.485Z,33.07
2023-02-22T09:33:05.572Z,37.83
2023-02-22T09:35:52.602Z,34.33
2023-02-22T09:38:24.858Z,35.13
2023-02-22T09:41:34.621Z,32.60
2023-02-22T09:44:07.064Z,40.87
2023-02-22T09:46:42.429Z,36.63
2023-02-22T09:49:28.037Z,38.33
2023-02-22T09:51:59.203Z,36.07
2023-02-22T09:54:34.699Z,40.17
2023-02-22T09:57:06.124Z,39.13
2023-02-22T09:59:40.162Z,35.53
2023-02-22T10:02:35.240Z,36.47
2023-02-22T10:05:39.786Z,39.37
2023-02-22T10:08:13.487Z,38.10
2023-02-22T10:10:45.994Z,37.63
2023-02-22T10:13:51.364Z,42.07
2023-02-22T10:16:24.258Z,39.10
2023-02-22T10:19:22.541Z,40.50
2023-02-22T10:22:21.690Z,42.17
2023-02-22T10:25:09.556Z,35.83
2023-02-22T10:27:54.089Z,37.90
2023-02-22T10:30:54.837Z,41.03
2023-02-22T10:33:32.772Z,39.53
2023-02-22T10:36:00.254Z,40.27
2023-02-22T10:38:31.853Z,42.27
2023-02-22T10:41:11.020Z,43.67
2023-02-22T10:43:41.716Z,47.67
2023-02-22T10:46:17.422Z,35.70
2023-02-22T10:48:49.613Z,39.37
2023-02-22T10:51:22.685Z,42.27
2023-02-22T10:53:59.063Z,41.07
2023-02-22T10:56:28.643Z,42.50
2023-02-22T10:59:02.485Z,44.97
2023-02-22T11:01:37.721Z,43.27
2023-02-22T11:04:19.545Z,45.07
2023-02-22T11:06:50.862Z,40.93
2023-02-22T11:09:22.730Z,47.53
2023-02-22T11:12:07.392Z,40.93
2023-02-22T11:14:36.484Z,45.90
2023-02-22T11:17:08.829Z,50.60
2023-02-22T11:19:45.684Z,45.63
2023-02-22T11:22:19.784Z,49.63
2023-02-22T11:27:33.042Z,50.93
2023-02-22T11:30:17.020Z,47.53
2023-02-22T11:32:48.239Z,52.00
2023-02-22T11:35:24.388Z,56.77
2023-02-22T11:37:53.362Z,58.87
2023-02-22T11:40:23.299Z,70.30
2023-02-22T11:43:08.432Z,63.83
2023-02-22T11:46:02.178Z,73.43
2023-02-22T11:48:39.276Z,82.93
2023-02-22T11:51:30.269Z,76.00
2023-02-22T11:54:04.866Z,97.03
2023-02-22T11:56:40.146Z,84.83
2023-02-22T11:59:31.821Z,91.07
2023-02-22T12:02:18.595Z,89.13
2023-02-22T12:05:18.670Z,96.73
2023-02-22T12:07:53.646Z,108.30
2023-02-22T12:10:37.018Z,104.23
2023-02-22T12:13:22.362Z,109.20
2023-02-22T12:16:07.909Z,109.60
2023-02-22T12:19:05.444Z,111.93
2023-02-22T12:21:40.809Z,108.77
2023-02-22T12:24:18.822Z,94.80
2023-02-22T12:27:01.463Z,86.17
2023-02-22T12:29:44.423Z,90.83
2023-02-22T12:32:38.432Z,92.10
2023-02-22T12:35:37.627Z,84.77
2023-02-22T12:38:23.371Z,86.50
2023-02-22T12:41:14.069Z,88.83
2023-02-22T12:44:17.457Z,90.13
2023-02-22T12:46:49.074Z,84.90
2023-02-22T12:49:43.936Z,91.93
2023-02-22T12:52:27.137Z,88.27
2023-02-22T12:54:56.279Z,88.63
2023-02-22T12:58:04.006Z,100.50
2023-02-22T13:00:42.730Z,93.60
2023-02-22T13:03:30.880Z,85.80
2023-02-22T13:06:28.079Z,84.53
2023-02-22T13:09:07.119Z,83.10
2023-02-22T13:11:49.080Z,81.83
2023-02-22T13:14:54.776Z,89.57
2023-02-22T13:17:43.140Z,88.90
2023-02-22T13:20:24.104Z,98.27
2023-02-22T13:22:54.098Z,95.43
2023-02-22T13:25:36.727Z,95.30
2023-02-22T13:28:07.598Z,91.63
2023-02-22T13:31:05.726Z,85.60
2023-02-22T13:33:32.637Z,80.87
2023-02-22T13:36:15.057Z,77.27
2023-02-22T13:39:10.380Z,76.37
2023-02-22T13:41:52.011Z,83.07
2023-02-22T13:44:55.922Z,83.73
2023-02-22T13:47:46.436Z,85.17
2023-02-22T13:50:38.026Z,71.77
2023-02-22T13:53:11.229Z,75.17
2023-02-22T13:55:43.301Z,77.80
2023-02-22T13:58:12.964Z,76.77
2023-02-22T14:00:56.636Z,72.67
2023-02-22T14:03:41.080Z,65.80
2023-02-22T14:06:37.215Z,68.27
2023-02-22T14:09:28.323Z,65.23
2023-02-22T14:11:57.004Z,61.93
2023-02-22T14:14:24.861Z,67.13
2023-02-22T14:17:16.896Z,65.83
2023-02-22T14:20:05.843Z,57.00
2023-02-22T14:22:35.963Z,59.73
2023-02-22T14:25:05.278Z,57.23
2023-02-22T14:27:42.784Z,57.47
2023-02-22T14:30:32.076Z,58.03
2023-02-22T14:33:00.770Z,56.00
2023-02-22T14:35:49.445Z,57.50
2023-02-22T14:38:19.647Z,54.60
2023-02-22T14:40:49.421Z,56.20
2023-02-22T14:43:22.719Z,53.73
2023-02-22T14:45:54.589Z,53.10
2023-02-22T14:48:39.482Z,57.73
2023-02-22T14:51:32.046Z,50.50
2023-02-22T14:54:18.662Z,48.60
2023-02-22T14:56:59.913Z,51.43
2023-02-22T14:59:30.906Z,52.27
2023-02-22T15:02:18.926Z,50.93
2023-02-22T15:04:54.638Z,46.07
2023-02-22T15:07:30.535Z,49.83
2023-02-22T15:10:30.480Z,48.87
2023-02-22T15:13:09.791Z,52.43
2023-02-22T15:15:43.935Z,46.43
2023-02-22T15:18:27.156Z,46.50
2023-02-22T15:21:06.864Z,54.27
2023-02-22T15:23:43.648Z,42.70
2023-02-22T15:26:35.814Z,42.23
2023-02-22T15:29:15.694Z,48.50
2023-02-22T15:31:48.294Z,43.80
2023-02-22T15:34:32.651Z,40.87
2023-02-22T15:37:28.029Z,45.23
2023-02-22T15:40:33.365Z,47.30
2023-02-22T15:43:09.058Z,49.97
2023-02-22T15:45:43.012Z,43.67
2023-02-22T15:48:15.945Z,46.57
2023-02-22T15:51:01.250Z,45.53
2023-02-22T15:53:37.435Z,43.80
2023-02-22T15:56:08.151Z,51.20
2023-02-22T15:58:39.255Z,40.87
2023-02-22T16:01:12.432Z,47.03
2023-02-22T16:03:47.247Z,46.03
2023-02-22T16:06:35.407Z,44.23
2023-02-22T16:09:08.282Z,49.13
2023-02-22T16:11:43.342Z,47.10
2023-02-22T16:14:32.075Z,46.53
2023-02-22T16:17:35.975Z,41.47
2023-02-22T16:20:17.754Z,47.17
2023-02-22T16:22:49.535Z,53.37
2023-02-22T16:25:25.267Z,48.13
2023-02-22T16:27:55.863Z,43.00
2023-02-22T16:30:36.198Z,45.10
2023-02-22T16:33:16.702Z,47.83
2023-02-22T16:35:52.159Z,51.90
2023-02-22T16:38:21.341Z,47.97
2023-02-22T16:40:56.502Z,47.33
2023-02-22T16:43:27.690Z,42.77
2023-02-22T16:45:55.698Z,40.50
2023-02-22T16:48:29.678Z,41.63
2023-02-22T16:51:02.596Z,36.30
2023-02-22T16:53:32.887Z,38.97
2023-02-22T16:56:08.591Z,38.30
2023-02-22T16:58:39.446Z,40.33
2023-02-22T17:01:09.627Z,43.67
2023-02-22T17:03:36.655Z,38.37
2023-02-22T17:06:05.239Z,35.40
2023-02-22T17:08:32.539Z,39.73
2023-02-22T17:11:00.831Z,40.97
2023-02-22T17:13:29.316Z,38.57
2023-02-22T17:15:57.546Z,43.83
2023-02-22T17:18:28.669Z,43.67
2023-02-22T17:20:56.250Z,39.07
2023-02-22T17:23:27.807Z,37.83
2023-02-22T17:25:59.353Z,35.50
2023-02-22T17:28:27.220Z,38.20
2023-02-22T17:31:01.624Z,40.90
2023-02-22T17:33:34.929Z,37.07
2023-02-22T17:36:05.456Z,38.73
2023-02-22T17:38:34.616Z,35.77
2023-02-22T17:41:01.730Z,40.47
2023-02-22T17:43:29.375Z,37.30
2023-02-22T17:45:57.303Z,34.43
2023-02-22T17:48:24.667Z,39.07
2023-02-22T17:50:53.471Z,33.87
2023-02-22T17:53:24.944Z,36.53
2023-02-22T17:55:54.052Z,35.80
2023-02-22T17:58:21.204Z,36.47
2023-02-22T18:00:50.303Z,35.73
2023-02-22T18:03:25.874Z,37.63
2023-02-22T18:05:57.841Z,36.63
2023-02-22T18:08:30.026Z,36.57
2023-02-22T18:10:57.383Z,36.37
2023-02-22T18:13:27.743Z,34.00
2023-02-22T18:16:00.291Z,38.80
2023-02-22T18:18:27.728Z,38.23
2023-02-22T18:20:59.678Z,38.23
2023-02-22T18:23:30.340Z,37.13
2023-02-22T18:26:10.842Z,42.07
2023-02-22T18:28:40.232Z,40.00
2023-02-22T18:31:15.569Z,38.47
2023-02-22T18:33:44.582Z,40.03
2023-02-22T18:36:15.504Z,34.77
2023-02-22T18:38:45.756Z,45.07
2023-02-22T18:41:15.030Z,36.33
2023-02-22T18:43:42.600Z,42.27
2023-02-22T18:46:13.241Z,42.00
2023-02-22T18:48:40.626Z,38.87
2023-02-22T18:51:12.794Z,43.37
2023-02-22T18:53:47.992Z,47.27
2023-02-22T18:56:22.010Z,41.37
2023-02-22T18:58:55.467Z,42.97
2023-02-22T19:01:26.385Z,43.43
2023-02-22T19:03:56.750Z,44.53
2023-02-22T19:06:26.725Z,48.23
2023-02-22T19:08:55.689Z,49.93
2023-02-22T19:11:25.287Z,48.73
2023-02-22T19:13:57.048Z,43.17
2023-02-22T19:16:26.932Z,45.03
2023-02-22T19:18:57.800Z,43.30
2023-02-22T19:21:26.376Z,46.00
2023-02-22T19:23:53.361Z,46.70
2023-02-22T19:26:24.455Z,48.03
2023-02-22T19:28:53.757Z,41.27
2023-02-22T19:31:22.126Z,44.33
2023-02-22T19:33:53.141Z,49.90
2023-02-22T19:36:25.411Z,53.30
2023-02-22T19:38:52.472Z,48.43
2023-02-22T19:41:22.847Z,44.20
2023-02-22T19:43:54.919Z,46.40
2023-02-22T19:46:22.651Z,44.47
2023-02-22T19:48:51.851Z,46.47
2023-02-22T19:51:24.563Z,44.97
2023-02-22T19:53:51.910Z,43.37
2023-02-22T19:56:27.158Z,44.30
2023-02-22T19:58:56.784Z,51.83
2023-02-22T20:01:24.743Z,42.07
2023-02-22T20:04:17.773Z,46.07
2023-02-22T20:06:48.402Z,47.03
2023-02-22T20:09:19.262Z,43.03
2023-02-22T20:11:48.342Z,48.27
2023-02-22T20:14:23.441Z,44.20
2023-02-22T20:16:55.534Z,41.93
2023-02-22T20:19:23.048Z,43.63
2023-02-22T20:21:52.462Z,45.70
2023-02-22T20:24:19.720Z,45.20
2023-02-22T20:26:47.485Z,44.37
2023-02-22T20:29:16.575Z,41.83
2023-02-22T20:31:44.447Z,43.87
2023-02-22T20:34:12.009Z,42.40
2023-02-22T20:36:41.522Z,47.63
2023-02-22T20:39:13.580Z,46.90
2023-02-22T20:41:46.326Z,43.77
2023-02-22T20:44:16.078Z,48.63
2023-02-22T20:46:43.559Z,47.07
2023-02-22T20:49:15.011Z,44.67
2023-02-22T20:51:44.980Z,43.33
2023-02-22T20:54:13.313Z,42.97
2023-02-22T20:56:43.527Z,44.97
2023-02-22T20:59:18.226Z,47.00
2023-02-22T21:01:47.479Z,45.20
2023-02-22T21:04:14.497Z,48.67
2023-02-22T21:06:43.205Z,48.60
2023-02-22T21:09:16.526Z,46.63
2023-02-22T21:11:44.163Z,52.00
2023-02-22T21:14:18.869Z,47.60
2023-02-22T21:16:51.068Z,46.00
2023-02-22T21:19:26.462Z,45.57
2023-02-22T21:21:56.276Z,45.20
2023-02-22T21:24:29.090Z,49.50
2023-02-22T21:26:59.024Z,44.70
2023-02-22T21:29:27.215Z,42.97
2023-02-22T21:31:54.568Z,42.80
2023-02-22T21:34:22.497Z,43.80
2023-02-22T21:36:52.508Z,46.30
2023-02-22T21:39:19.576Z,46.93
2023-02-22T21:41:49.594Z,43.10
2023-02-22T21:44:18.244Z,42.97
2023-02-22T21:46:49.750Z,45.17
2023-02-22T21:49:17.663Z,46.13
2023-02-22T21:51:45.010Z,51.33
2023-02-22T21:54:12.649Z,41.37
2023-02-22T21:56:41.927Z,47.63
2023-02-22T21:59:23.876Z,44.57
2023-02-22T22:01:56.078Z,45.13
2023-02-22T22:04:27.617Z,45.10
2023-02-22T22:06:56.924Z,45.50
2023-02-22T22:09:24.856Z,42.30
2023-02-22T22:11:54.630Z,41.87
2023-02-22T22:14:24.730Z,45.73
2023-02-22T22:16:58.682Z,45.13
2023-02-22T22:19:27.247Z,41.53
2023-02-22T22:21:54.531Z,44.93
2023-02-22T22:24:22.763Z,47.77
2023-02-22T22:26:57.021Z,48.13
2023-02-22T22:29:28.556Z,44.23
2023-02-22T22:31:56.272Z,47.93
2023-02-22T22:34:24.479Z,46.13
2023-02-22T22:36:52.793Z,48.13
2023-02-22T22:39:21.222Z,45.07
2023-02-22T22:41:48.793Z,45.33
2023-02-22T22:44:16.727Z,47.90
2023-02-22T22:46:49.089Z,41.03
2023-02-22T22:49:16.418Z,43.33
2023-02-22T22:51:43.326Z,44.70
2023-02-22T22:54:10.664Z,43.53
2023-02-22T22:56:38.798Z,41.53
2023-02-22T22:59:07.796Z,45.23
2023-02-22T23:01:44.734Z,44.50
2023-02-22T23:04:16.438Z,44.57
2023-02-22T23:06:47.021Z,43.93
2023-02-22T23:09:25.021Z,44.23
2023-02-22T23:11:55.726Z,46.70
2023-02-22T23:14:31.122Z,46.40
2023-02-22T23:17:13.568Z,47.87
2023-02-22T23:19:41.249Z,41.17
2023-02-22T23:22:08.736Z,46.30
2023-02-22T23:24:37.430Z,39.97
2023-02-22T23:27:08.100Z,38.33
2023-02-22T23:29:38.805Z,45.00
2023-02-22T23:32:06.270Z,43.27
2023-02-22T23:34:35.960Z,40.37
2023-02-22T23:37:03.303Z,41.93
2023-02-22T23:39:30.251Z,43.30
2023-02-22T23:42:03.411Z,39.60
2023-02-22T23:44:30.384Z,40.43
2023-02-22T23:46:57.317Z,41.40
2023-02-22T23:49:27.875Z,40.37
2023-02-22T23:51:55.847Z,41.27
2023-02-22T23:54:24.569Z,43.43
2023-02-22T23:56:58.468Z,38.10
2023-02-22T23:59:27.080Z,39.97
